Airport View

Enter AWOS ICAO identifier for current METAR.

ex. KFNL

KD57 241020Z AUTO 31010KT 10SM BKN011 M21/M26 A3029 RMK AO2 PWINO

24 Jan 2019 10:17

Other Area AWOS: KHZE - KDIK - KY19 - KBIS

TAF AMD KDIK 240856Z 2409/2506 31016KT P6SM SCT008 TEMPO 2409/2411 6SM BR BKN007 FM241500 29014KT P6SM FEW230 FM250300 23009KT P6SM -SN OVC040 WS020/27040KT